地図

経路データ

SID SEASON NUMBER BASIN SUBBASIN NAME ISO_TIME NATURE LAT LON WMO_WIND WMO_PRES WMO_AGENCY TRACK_TYPE DIST2LAND LANDFALL IFLAG USA_AGENCY USA_ATCF_ID USA_LAT USA_LON USA_RECORD USA_STATUS USA_WIND USA_PRES USA_SSHS USA_R34_NE USA_R34_SE USA_R34_SW USA_R34_NW USA_R50_NE USA_R50_SE USA_R50_SW USA_R50_NW USA_R64_NE USA_R64_SE USA_R64_SW USA_R64_NW USA_POCI USA_ROCI USA_RMW USA_EYE TOKYO_LAT TOKYO_LON TOKYO_GRADE TOKYO_WIND TOKYO_PRES TOKYO_R50_DIR TOKYO_R50_LONG TOKYO_R50_SHORT TOKYO_R30_DIR TOKYO_R30_LONG TOKYO_R30_SHORT TOKYO_LAND CMA_LAT CMA_LON CMA_CAT CMA_WIND CMA_PRES HKO_LAT HKO_LON HKO_CAT HKO_WIND HKO_PRES NEWDELHI_LAT NEWDELHI_LON NEWDELHI_GRADE NEWDELHI_WIND NEWDELHI_PRES NEWDELHI_CI NEWDELHI_DP NEWDELHI_POCI REUNION_LAT REUNION_LON REUNION_TYPE REUNION_WIND REUNION_PRES REUNION_TNUM REUNION_CI REUNION_RMW REUNION_R34_NE REUNION_R34_SE REUNION_R34_SW REUNION_R34_NW REUNION_R50_NE REUNION_R50_SE REUNION_R50_SW REUNION_R50_NW REUNION_R64_NE REUNION_R64_SE REUNION_R64_SW REUNION_R64_NW BOM_LAT BOM_LON BOM_TYPE BOM_WIND BOM_PRES BOM_TNUM BOM_CI BOM_RMW BOM_R34_NE BOM_R34_SE BOM_R34_SW BOM_R34_NW BOM_R50_NE BOM_R50_SE BOM_R50_SW BOM_R50_NW BOM_R64_NE BOM_R64_SE BOM_R64_SW BOM_R64_NW BOM_ROCI BOM_POCI BOM_EYE BOM_POS_METHOD BOM_PRES_METHOD NADI_LAT NADI_LON NADI_CAT NADI_WIND NADI_PRES WELLINGTON_LAT WELLINGTON_LON WELLINGTON_WIND WELLINGTON_PRES DS824_LAT DS824_LON DS824_STAGE DS824_WIND DS824_PRES TD9636_LAT TD9636_LON TD9636_STAGE TD9636_WIND TD9636_PRES TD9635_LAT TD9635_LON TD9635_WIND TD9635_PRES TD9635_ROCI NEUMANN_LAT NEUMANN_LON NEUMANN_CLASS NEUMANN_WIND NEUMANN_PRES MLC_LAT MLC_LON MLC_CLASS MLC_WIND MLC_PRES USA_GUST BOM_GUST BOM_GUST_PER REUNION_GUST REUNION_GUST_PER USA_SEAHGT USA_SEARAD_NE USA_SEARAD_SE USA_SEARAD_SW USA_SEARAD_NW STORM_SPEED STORM_DIR
1980208N23153 1980 54 WP MM LEX 1980-07-26 06:00:00 TS 22.5000 152.800 main 1857 1845 O________OO___ jtwc_wp WP121980 22.5000 152.800 20 -1 22.5000 152.800 TC 20 22.5000 152.800 0 20 5 270
1980208N23153 1980 54 WP MM LEX 1980-07-26 09:00:00 TS 22.5001 152.549 main 1839 1826 P________PP___ WP121980 22.5001 152.550 20 -1 22.5001 152.550 TC 20 22.5001 152.548 0 20 5 270
1980208N23153 1980 54 WP MM LEX 1980-07-26 12:00:00 TS 22.5000 152.300 main 1826 1814 O________OO___ jtwc_wp WP121980 22.5000 152.300 20 -1 22.5000 152.300 TC 20 22.5000 152.300 0 20 5 270
1980208N23153 1980 54 WP MM LEX 1980-07-26 15:00:00 TS 22.4999 152.052 main 1814 1796 P________PP___ WP121980 22.5000 152.050 20 -1 22.5000 152.050 TC 20 22.4998 152.057 0 20 5 270
1980208N23153 1980 54 WP MM LEX 1980-07-26 18:00:00 TS 22.4999 151.805 main 1796 1785 O________OP___ jtwc_wp WP121980 22.5000 151.800 20 -1 22.5000 151.800 TC 20 22.4997 151.814 0 20 5 270
1980208N23153 1980 54 WP MM LEX 1980-07-26 21:00:00 TS 22.4999 151.560 main 1785 1767 P________PP___ WP121980 22.4999 151.558 20 -1 22.4999 151.558 TC 20 22.4998 151.564 0 20 5 270
1980208N23153 1980 54 WP MM LEX 1980-07-27 00:00:00 TS 22.5000 151.300 main 1767 1750 O________OO___ jtwc_wp WP121980 22.5000 151.300 20 -1 22.5000 151.300 TC 20 22.5000 151.300 0 20 5 270
1980208N23153 1980 54 WP MM LEX 1980-07-27 03:00:00 TS 22.4973 151.008 main 1750 1733 P________PP___ WP121980 22.5000 151.008 20 -1 22.5000 151.008 TC 20 22.4919 151.010 0 20 6 269
1980208N23153 1980 54 WP MM LEX 1980-07-27 06:00:00 TS 22.4950 150.702 main 1733 1716 O________OP___ jtwc_wp WP121980 22.5000 150.700 20 -1 22.5000 150.700 TC 20 22.4850 150.707 0 20 6 269
1980208N23153 1980 54 WP MM LEX 1980-07-27 09:00:00 TS 22.4902 150.395 main 1716 1700 P________PP___ WP121980 22.4925 150.392 20 -1 22.4925 150.392 TC 20 22.4856 150.401 0 20 6 271
1980208N23153 1980 54 WP MM LEX 1980-07-27 12:00:00 TS 22.5000 150.100 main 1700 1690 O________OO___ jtwc_wp WP121980 22.5000 150.100 20 -1 22.5000 150.100 TC 20 22.5000 150.100 0 20 5 275
1980208N23153 1980 54 WP MM LEX 1980-07-27 15:00:00 TS 22.5387 149.838 main 1684 1664 P________PP___ WP121980 22.5424 149.850 20 -1 22.5424 149.850 TC 20 22.5314 149.814 0 20 5 281
1980208N23153 1980 54 WP MM LEX 1980-07-27 18:00:00 TS 22.5924 149.578 main 1664 1648 O________OP___ jtwc_wp WP121980 22.6000 149.600 20 -1 22.6000 149.600 TC 20 22.5773 149.535 0 20 5 282
1980208N23153 1980 54 WP MM LEX 1980-07-27 21:00:00 TS 22.6449 149.288 main 1648 1622 P________PP___ WP121980 22.6500 149.300 20 -1 22.6500 149.300 TC 20 22.6346 149.264 0 20 5 287
1980208N23153 1980 54 WP MM LEX 1980-07-28 00:00:00 TS 22.7500 149.021 1008 tokyo main 1613 1602 OOO______OO___ jtwc_wp WP121980 22.7000 149.000 20 -1 22.6000 148.400 2 1008 0 0 0 23.5000 149.900 0 19 1004 22.7000 149.000 TC 20 22.7000 149.000 0 20 5 291
1980208N23153 1980 54 WP MM LEX 1980-07-28 03:00:00 TS 22.8248 148.786 main 1602 1582 PPP______PP___ WP121980 22.7424 148.742 20 -1 22.7525 148.343 2 1008 0 0 23.3725 149.607 0 19 1004 22.7424 148.742 TC 20 22.7517 148.686 0 20 4 290
1980208N23153 1980 54 WP MM LEX 1980-07-28 06:00:00 TS 22.9028 148.575 1008 tokyo main 1582 1562 OOO______OP___ jtwc_wp WP121980 22.8000 148.500 20 -1 22.9000 148.300 2 1008 0 0 0 23.3000 149.300 0 19 1004 22.8000 148.500 TC 20 22.8128 148.388 0 20 4 294
1980208N23153 1980 54 WP MM LEX 1980-07-28 09:00:00 TS 23.0020 148.361 main 1562 1542 PPP______PP___ WP121980 22.8776 148.198 20 -1 23.0425 148.285 2 1007 0 0 23.3200 148.978 0 19 1004 22.8776 148.198 TC 20 22.8923 148.146 0 20 4 302
1980208N23153 1980 54 WP MM LEX 1980-07-28 12:00:00 TS 23.1200 148.200 1006 tokyo main 1542 1523 OOO______OO___ jtwc_wp WP121980 23.0000 148.000 20 -1 23.2000 148.300 2 1006 0 0 0 23.4000 148.700 0 19 1004 23.0000 148.000 TC 20 23.0000 148.000 0 20 3 330
1980208N23153 1980 54 WP MM LEX 1980-07-28 15:00:00 TS 23.2838 148.191 main 1523 1513 PPP______PP___ WP121980 23.1925 148.047 22 -1 23.4075 148.342 2 1005 0 0 23.4924 148.498 0 19 1003 23.1925 148.047 TC 22 23.1340 148.019 0 21 3 8
1980208N23153 1980 54 WP MM LEX 1980-07-28 18:00:00 TS 23.4567 148.263 1004 tokyo main 1509 1499 OOOO_____OP___ jtwc_wp WP121980 23.4000 148.200 25 -1 23.6000 148.400 2 1004 0 0 0 23.6000 148.400 0 19 1002 23.4000 148.200 TD 25 1006 23.4000 148.200 TC 25 23.2975 148.132 0 22 3 25
1980208N23153 1980 54 WP MM LEX 1980-07-28 21:00:00 TS 23.5970 148.344 main 1499 1495 PPPP_____PP___ WP121980 23.5425 148.315 25 -1 23.7075 148.435 2 1003 0 0 23.6925 148.405 0 19 1002 23.6225 148.287 TD 25 1004 23.5425 148.315 TC 25 23.4872 148.278 0 23 3 28
1980208N23153 1980 54 WP MM LEX 1980-07-29 00:00:00 TS 23.7478 148.435 1002 tokyo main 1495 1481 OOOO_____OO___ jtwc_wp WP121980 23.7000 148.400 25 -1 23.8000 148.500 2 1002 0 0 0 23.8000 148.500 0 19 1002 23.8000 148.400 TD 25 1002 23.7000 148.400 TC 25 23.7000 148.400 0 25 4 23
1980208N23153 1980 54 WP MM LEX 1980-07-29 03:00:00 TS 23.9378 148.506 main 1481 1462 PPPP_____PP___ WP121980 23.9350 148.423 27 -1 23.9500 148.642 2 1001 0 0 23.9425 148.642 0 24 1001 23.9075 148.550 TD 27 1001 23.9350 148.423 TC 27 23.9567 148.359 0 26 4 17
1980208N23153 1980 54 WP MM LEX 1980-07-29 06:00:00 TS 24.1383 148.565 1000 tokyo main 1468 1449 OOOO_____OP___ jtwc_wp WP121980 24.2000 148.400 30 -1 24.1000 148.800 2 1000 0 0 0 24.1000 148.800 1 29 1000 24.0000 148.700 TD 30 1000 24.2000 148.400 TC 30 24.2296 148.291 0 27 4 9
1980208N23153 1980 54 WP MM LEX 1980-07-29 09:00:00 TS 24.3400 148.582 main 1449 1430 PPPP_____PP___ WP121980 24.4800 148.313 30 -1 24.2000 148.908 2 999 0 0 24.2500 148.908 1 29 1000 24.1425 148.800 TD 30 999 24.4800 148.313 TC 30 24.4878 148.253 0 28 4 7
1980208N23153 1980 54 WP MM LEX 1980-07-29 12:00:00 TS 24.5167 148.633 998 tokyo main 1430 1426 OOOO_____OO___ jtwc_wp WP121980 24.7000 148.300 30 -1 24.3000 149.000 2 998 0 0 0 24.4000 149.000 1 29 1000 24.3000 148.900 TD 30 998 24.7000 148.300 TC 30 24.7000 148.300 1 30 4 35
1980208N23153 1980 54 WP MM LEX 1980-07-29 15:00:00 TS 24.6349 148.804 main 1431 1422 PPPP_____PP___ WP121980 24.7725 148.490 32 -1 24.4425 149.107 2 997 0 0 24.5500 149.107 1 29 999 24.4500 149.050 TD 32 997 24.7725 148.490 TC 32 24.8222 148.579 1 32 4 59
1980208N23153 1980 54 WP MM LEX 1980-07-29 18:00:00 TS 24.7327 149.023 35 996 tokyo main 1432 1429 OOOO_____OP___ jtwc_wp WP121980 24.8000 148.800 35 0 24.6000 149.200 3 35 996 0 2 125 75 0 24.7000 149.200 1 29 998 24.6000 149.200 TS 35 996 24.8000 148.800 TC 35 24.8963 148.937 1 35 5 64
1980208N23153 1980 54 WP MM LEX 1980-07-29 21:00:00 TS 24.8383 149.257 main 1440 1427 PPPP_____PP___ WP121980 24.8628 149.195 37 0 24.7500 149.280 3 40 995 0 2 137 87 24.8575 149.272 1 33 996 24.7500 149.322 TS 37 994 24.8628 149.195 TC 37 24.9471 149.276 1 37 4 57
1980208N23153 1980 54 WP MM LEX 1980-07-30 00:00:00 TS 24.9667 149.417 45 994 tokyo main 1427 1409 OOOO_____OO___ jtwc_wp WP121980 25.0000 149.500 40 0 24.9000 149.300 3 45 994 0 2 150 100 0 25.0000 149.300 2 38 994 24.9000 149.400 TS 40 992 25.0000 149.500 TC 40 25.0000 149.500 2 40 4 23
1980208N23153 1980 54 WP MM LEX 1980-07-30 03:00:00 TS 25.1671 149.414 main 1409 1394 PPPP_____PP___ WP121980 25.3298 149.540 42 0 25.0575 149.223 3 50 992 0 2 162 112 25.1150 149.273 2 38 992 25.0575 149.430 TS 45 990 25.3298 149.540 TC 42 25.1129 149.480 2 42 4 346
1980208N23153 1980 54 WP MM LEX 1980-07-30 06:00:00 TS 25.3383 149.306 55 990 tokyo main 1394 1379 OOOO_____OP___ jtwc_wp WP121980 25.6000 149.400 45 0 25.2000 149.100 4 55 990 9 30 30 2 175 125 0 25.2000 149.200 2 38 990 25.2000 149.400 STS 50 988 25.6000 149.400 TC 45 25.2299 149.336 2 45 3 312
1980208N23153 1980 54 WP MM LEX 1980-07-30 09:00:00 TS 25.3862 149.148 main 1373 1368 PPPP_____PP___ WP121980 25.5376 149.165 47 0 25.3225 149.000 4 55 987 9 40 40 2 187 137 25.2575 149.115 2 43 987 25.3300 149.323 STS 50 985 25.5376 149.165 TC 47 25.3319 149.124 2 47 3 278
1980208N23153 1980 54 WP MM LEX 1980-07-30 12:00:00 TS 25.3833 148.967 55 985 tokyo main 1368 1356 OOOO_____OO___ jtwc_wp WP121980 25.4000 148.900 50 0 25.4000 148.900 4 55 985 9 50 50 1 200 150 0 25.3000 149.000 3 48 984 25.4000 149.200 STS 50 983 25.4000 148.900 TC 50 25.4000 148.900 2 50 3 276
1980208N23153 1980 54 WP MM LEX 1980-07-30 15:00:00 TS 25.4144 148.828 main 1356 1351 PPPP_____PP___ WP121980 25.4499 148.735 52 0 25.4300 148.800 4 55 982 9 50 50 1 200 150 25.3650 148.865 3 48 983 25.3725 149.057 STS 52 981 25.4499 148.735 TC 52 25.4188 148.774 2 52 3 278
1980208N23153 1980 54 WP MM LEX 1980-07-30 18:00:00 TS 25.4170 148.691 55 980 tokyo main 1351 1345 OOOO_____OP___ jtwc_wp WP121980 25.5000 148.600 55 0 25.4000 148.700 4 55 980 9 50 50 1 200 150 0 25.4000 148.700 3 48 982 25.3000 148.900 STS 55 980 25.5000 148.600 TC 55 25.4021 148.645 2 55 3 256
1980208N23153 1980 54 WP MM LEX 1980-07-30 21:00:00 TS 25.3507 148.545 main 1339 1339 PPPP_____PP___ WP121980 25.4150 148.450 57 0 25.2999 148.622 4 57 977 9 50 40 1 187 137 25.3650 148.500 3 53 979 25.2500 148.758 STS 55 977 25.4150 148.450 TC 57 25.3593 148.493 2 57 3 241
1980208N23153 1980 54 WP MM LEX 1980-07-31 00:00:00 TS 25.2667 148.383 60 975 tokyo main 1343 1338 OOOO_____OO___ jtwc_wp WP121980 25.3000 148.300 60 0 25.2000 148.500 4 60 975 3 50 30 2 175 125 0 25.3000 148.300 3 58 976 25.2000 148.600 STS 55 975 25.3000 148.300 TC 60 25.3000 148.300 2 60 3 248
1980208N23153 1980 54 WP MM LEX 1980-07-31 03:00:00 TS 25.2271 148.203 main 1342 1331 PPPP_____PP___ WP121980 25.2497 148.195 62 0 25.2076 148.258 4 62 972 3 55 35 2 187 137 25.2575 148.143 3 58 974 25.1500 148.415 STS 55 975 25.2497 148.195 TC 62 25.2480 148.015 2 61 4 257
1980208N23153 1980 54 WP MM LEX 1980-07-31 06:00:00 TS 25.1801 147.982 65 970 tokyo main 1331 1325 OOOO_____OP___ jtwc_wp WP121980 25.2000 148.000 65 1 25.2000 148.000 5 65 970 3 60 40 2 200 150 0 25.2000 148.000 3 58 973 25.1000 148.200 STS 55 975 25.2000 148.000 TC 65 25.1807 147.692 2 62 5 254
1980208N23153 1980 54 WP MM LEX 1980-07-31 09:00:00 TS 25.0944 147.677 main 1325 1318 PPPP_____PP___ WP121980 25.1156 147.520 65 1 25.0724 147.835 5 65 970 3 60 50 2 200 175 25.1075 147.858 3 58 972 25.0575 147.958 STS 57 972 25.1156 147.520 TC 65 25.0980 147.374 2 63 6 250
1980208N23153 1980 54 WP MM LEX 1980-07-31 12:00:00 TS 24.9833 147.400 65 970 tokyo main 1318 1318 OOOO_____OO___ jtwc_wp WP121980 25.0000 147.100 65 1 24.9000 147.700 5 65 970 9 60 60 9 200 200 0 25.0000 147.700 3 58 972 25.0000 147.700 STS 60 970 25.0000 147.100 TC 65 25.0000 147.100 4 65 4 236
1980208N23153 1980 54 WP MM LEX 1980-07-31 15:00:00 TS 24.8576 147.295 main 1322 1322 PPPP_____PP___ WP121980 24.8498 147.128 65 1 24.7348 147.588 5 65 970 9 60 60 9 200 200 24.9074 147.523 3 58 972 24.9149 147.458 STS 60 970 24.8498 147.128 TC 65 24.8889 146.945 4 65 3 217
1980208N23153 1980 54 WP MM LEX 1980-07-31 18:00:00 TS 24.7274 147.189 65 970 tokyo main 1337 1327 OOOO_____OP___ jtwc_wp WP121980 24.7000 147.200 65 1 24.6000 147.400 5 65 970 9 60 60 9 200 200 0 24.8000 147.300 3 58 972 24.8000 147.200 STS 60 970 24.7000 147.200 TC 65 24.7643 146.835 4 65 4 234
1980208N23153 1980 54 WP MM LEX 1980-07-31 21:00:00 TS 24.6164 146.923 main 1331 1327 PPPP_____PP___ WP121980 24.6002 146.945 65 1 24.5504 147.000 5 65 970 9 70 70 9 200 200 24.6576 147.007 3 58 972 24.6575 146.908 STS 60 970 24.6002 146.945 TC 65 24.6327 146.733 4 65 6 246
1980208N23153 1980 54 WP MM LEX 1980-08-01 00:00:00 TS 24.5000 146.617 65 970 tokyo main 1327 1322 OOOO_____OO___ jtwc_wp WP121980 24.5000 146.600 65 1 24.5000 146.600 5 65 970 9 80 80 9 200 200 0 24.5000 146.700 3 58 972 24.5000 146.600 STS 60 970 24.5000 146.600 TC 65 24.5000 146.600 4 65 6 242
1980208N23153 1980 54 WP MM LEX 1980-08-01 03:00:00 TS 24.3541 146.379 main 1328 1328 PPPP_____PP___ WP121980 24.3499 146.342 65 1 24.3572 146.443 5 67 967 9 80 80 9 200 200 24.3423 146.458 3 58 971 24.3499 146.300 STS 62 967 24.3499 146.342 TC 65 24.3751 146.390 4 66 5 236
1980208N23153 1980 54 WP MM LEX 1980-08-01 06:00:00 TS 24.2083 146.141 70 965 tokyo main 1335 1330 OOOO_____OP___ jtwc_wp WP121980 24.2000 146.100 65 1 24.2000 146.300 5 70 965 9 80 80 9 200 200 0 24.2000 146.200 3 58 970 24.2000 146.000 T 65 965 24.2000 146.100 TC 65 24.2501 146.145 4 67 6 241
1980208N23153 1980 54 WP MM LEX 1980-08-01 09:00:00 TS 24.0896 145.850 main 1336 1332 PPPP_____PP___ WP121980 24.0924 145.858 67 1 24.0926 145.973 5 70 965 9 80 80 9 200 200 24.0926 145.850 3 63 967 24.0425 145.685 T 65 965 24.0924 145.858 TC 67 24.1250 145.878 4 68 6 247
1980208N23153 1980 54 WP MM LEX 1980-08-01 12:00:00 TS 23.9833 145.550 70 965 tokyo main 1334 1330 OOOO_____OO___ jtwc_wp WP121980 24.0000 145.600 70 1 24.0000 145.600 5 70 965 9 80 80 9 200 200 0 24.0000 145.500 4 68 965 23.9000 145.400 T 65 965 24.0000 145.600 TC 70 24.0000 145.600 4 70 6 248
1980208N23153 1980 54 WP MM LEX 1980-08-01 15:00:00 TS 23.8685 145.263 main 1333 1329 PPPP_____PP___ WP121980 23.9075 145.300 70 1 23.9074 145.285 5 70 965 9 80 80 9 200 200 23.8924 145.220 4 68 965 23.7774 145.185 T 65 965 23.9075 145.300 TC 70 23.8184 145.287 4 71 6 246
1980208N23153 1980 54 WP MM LEX 1980-08-01 18:00:00 TS 23.7576 144.996 70 965 tokyo main 1333 1333 OOOO_____OP___ jtwc_wp WP121980 23.8000 145.000 70 1 23.8000 145.000 5 70 965 9 80 80 9 200 200 0 23.8000 145.000 4 68 965 23.7000 145.000 T 65 965 23.8000 145.000 TC 70 23.6455 144.974 4 72 5 243
1980208N23153 1980 54 WP MM LEX 1980-08-01 21:00:00 TS 23.6254 144.739 main 1343 1340 PPPP_____PP___ WP121980 23.6125 144.712 72 1 23.6125 144.705 5 70 965 9 80 80 9 212 187 23.7274 144.828 4 68 965 23.6625 144.778 T 65 965 23.6125 144.712 TC 72 23.5247 144.700 4 73 5 245
1980208N23153 1980 54 WP MM LEX 1980-08-02 00:00:00 TS 23.5667 144.550 70 965 tokyo main 1340 1337 OOOO_____OO___ jtwc_wp WP121980 23.5000 144.500 75 1 23.5000 144.500 5 70 965 9 80 80 3 225 175 0 23.7000 144.700 4 68 965 23.7000 144.600 T 65 965 23.5000 144.500 TC 75 23.5000 144.500 4 75 2 276
1980208N23153 1980 54 WP MM LEX 1980-08-02 03:00:00 TS 23.6500 144.468 main 1337 1316 PPPP_____PP___ WP121980 23.5824 144.405 75 1 23.5824 144.470 5 70 965 9 80 80 3 225 175 23.6975 144.578 4 68 965 23.8350 144.528 T 65 965 23.5824 144.405 TC 75 23.6200 144.425 4 75 3 341
1980208N23153 1980 54 WP MM LEX 1980-08-02 06:00:00 TS 23.8395 144.454 70 965 tokyo main 1316 1284 OOOO_____OP___ jtwc_wp WP121980 23.8000 144.400 75 1 23.8000 144.500 5 70 965 9 80 80 2 225 175 0 23.8000 144.500 4 68 965 24.0000 144.500 T 65 965 23.8000 144.400 TC 75 23.8372 144.425 4 75 4 0
1980208N23153 1980 54 WP MM LEX 1980-08-02 09:00:00 TS 24.0693 144.457 main 1284 1263 PPPP_____PP___ WP121980 24.0475 144.442 75 1 24.0775 144.450 5 72 965 9 115 80 2 225 175 24.0550 144.492 4 68 965 24.0775 144.450 T 67 962 24.0475 144.442 TC 75 24.1108 144.462 4 75 5 3
1980208N23153 1980 54 WP MM LEX 1980-08-02 12:00:00 TS 24.3667 144.467 75 965 tokyo main 1252 1221 OOOO_____OO___ jtwc_wp WP121980 24.4000 144.500 75 1 24.4000 144.400 5 75 965 2 150 80 2 225 175 0 24.4000 144.500 4 68 965 24.2000 144.400 T 70 960 24.4000 144.500 TC 75 24.4000 144.500 4 75 7 359
1980208N23153 1980 54 WP MM LEX 1980-08-02 15:00:00 TS 24.7394 144.451 main 1221 1175 PPPP_____PP___ WP121980 24.9450 144.515 75 1 24.7000 144.392 5 72 965 2 150 80 2 225 175 24.7575 144.472 4 72 964 24.4625 144.335 T 70 960 24.9450 144.515 TC 75 24.6266 144.478 4 76 7 356
1980208N23153 1980 54 WP MM LEX 1980-08-02 18:00:00 TS 25.0938 144.425 70 965 tokyo main 1175 1154 OOOO_____OP___ jtwc_wp WP121980 25.4000 144.500 75 1 25.0000 144.400 5 70 965 2 150 80 2 225 175 0 25.1000 144.400 4 77 964 24.8000 144.300 T 70 960 25.4000 144.500 TC 75 24.8625 144.450 4 77 6 353
1980208N23153 1980 54 WP MM LEX 1980-08-02 21:00:00 TS 25.2925 144.381 main 1154 1133 PPPP_____PP___ WP121980 25.4150 144.450 77 1 25.3000 144.400 5 70 962 2 150 80 2 225 162 25.3651 144.220 4 77 963 25.1425 144.342 T 70 960 25.4150 144.450 TC 77 25.1172 144.422 4 78 4 350
1980208N23153 1980 54 WP MM LEX 1980-08-03 00:00:00 TS 25.4833 144.350 70 960 tokyo main 1130 1102 OOOO_____OO___ jtwc_wp WP121980 25.4000 144.400 80 1 25.6000 144.400 5 70 960 2 150 80 2 225 150 0 25.6000 144.100 4 77 962 25.5000 144.400 T 70 960 25.4000 144.400 TC 80 25.4000 144.400 4 80 5 0
1980208N23153 1980 54 WP MM LEX 1980-08-03 03:00:00 TS 25.8060 144.369 main 1102 1071 PPPP_____PP___ WP121980 25.7550 144.392 77 1 25.9000 144.400 5 70 960 2 125 65 2 212 125 25.8426 144.227 4 77 962 25.8500 144.415 T 67 962 25.7550 144.392 TC 77 25.7334 144.389 4 78 7 3
1980208N23153 1980 54 WP MM LEX 1980-08-03 06:00:00 TS 26.1654 144.398 70 960 tokyo main 1061 1030 OOOO_____OP___ jtwc_wp WP121980 26.2000 144.400 75 1 26.2000 144.400 5 70 960 2 100 50 2 200 100 0 26.1000 144.400 4 77 963 26.2000 144.400 T 65 965 26.2000 144.400 TC 75 26.0925 144.385 4 77 7 0
1980208N23153 1980 54 WP MM LEX 1980-08-03 09:00:00 TS 26.4892 144.394 main 1030 1000 PPPP_____PP___ WP121980 26.5150 144.400 75 1 26.5000 144.400 5 70 962 2 100 50 2 200 100 26.3925 144.423 4 77 963 26.5575 144.350 T 65 965 26.5150 144.400 TC 75 26.4553 144.389 4 76 6 0
1980208N23153 1980 54 WP MM LEX 1980-08-03 12:00:00 TS 26.8000 144.383 70 965 tokyo main 1000 969 OOOO_____OO___ jtwc_wp WP121980 26.8000 144.400 75 1 26.8000 144.400 5 70 965 2 100 50 2 200 100 0 26.7000 144.400 4 77 963 26.9000 144.300 T 65 965 26.8000 144.400 TC 75 26.8000 144.400 4 75 6 358
1980208N23153 1980 54 WP MM LEX 1980-08-03 15:00:00 TS 27.1031 144.372 main 969 939 PPPP_____PP___ WP121980 27.1075 144.393 72 1 27.1000 144.393 5 70 965 2 100 50 2 200 100 27.0000 144.370 4 72 964 27.2150 144.285 T 65 965 27.1075 144.393 TC 72 27.0884 144.398 4 73 6 3
1980208N23153 1980 54 WP MM LEX 1980-08-03 18:00:00 TS 27.3929 144.384 70 965 tokyo main 939 919 OOOO_____OP___ jtwc_wp WP121980 27.4000 144.400 70 1 27.4000 144.400 5 70 965 2 100 50 2 200 100 0 27.3000 144.400 4 68 965 27.5000 144.300 T 65 965 27.4000 144.400 TC 70 27.3574 144.406 4 72 6 7
1980208N23153 1980 54 WP MM LEX 1980-08-03 21:00:00 TS 27.6596 144.445 main 909 894 PPPP_____PP___ WP121980 27.6425 144.435 70 1 27.7000 144.442 5 67 967 2 100 50 2 187 100 27.6001 144.585 4 68 966 27.7500 144.335 T 62 967 27.6425 144.435 TC 70 27.6227 144.436 4 71 6 14
1980208N23153 1980 54 WP MM LEX 1980-08-04 00:00:00 TS 27.9333 144.533 65 970 tokyo main 894 869 OOOO_____OO___ jtwc_wp WP121980 27.9000 144.500 70 1 28.0000 144.500 5 65 970 2 100 50 2 175 100 0 27.9000 144.800 4 68 968 28.0000 144.400 STS 60 970 27.9000 144.500 TC 70 27.9000 144.500 4 70 6 14
1980208N23153 1980 54 WP MM LEX 1980-08-04 03:00:00 TS 28.2500 144.612 main 869 835 PPPP_____PP___ WP121980 28.2425 144.578 67 1 28.3000 144.535 5 65 970 2 100 50 2 175 100 28.1999 144.908 4 63 969 28.2925 144.485 STS 60 970 28.2425 144.578 TC 67 28.2226 144.590 4 68 7 14
1980208N23153 1980 54 WP MM LEX 1980-08-04 06:00:00 TS 28.5762 144.720 65 970 tokyo main 835 818 OOOO_____OP___ jtwc_wp WP121980 28.6000 144.700 65 1 28.6000 144.600 5 65 970 2 100 50 2 175 100 0 28.5000 145.000 3 58 970 28.6000 144.600 STS 60 970 28.6000 144.700 TC 65 28.5572 144.718 4 67 7 20
1980208N23153 1980 54 WP MM LEX 1980-08-04 09:00:00 TS 28.8901 144.871 main 818 796 PPPP_____PP___ WP121980 28.9150 144.878 65 1 28.9075 144.720 5 65 970 2 100 50 2 175 100 28.7999 145.128 3 58 970 28.9150 144.735 STS 60 970 28.9150 144.878 TC 65 28.8882 144.887 4 66 7 26
1980208N23153 1980 54 WP MM LEX 1980-08-04 12:00:00 TS 29.1833 145.067 65 970 tokyo main 801 787 OOOO_____OO___ jtwc_wp WP121980 29.2000 145.100 65 1 29.2000 144.900 5 65 970 2 100 50 2 175 100 0 29.1000 145.300 3 58 970 29.2000 144.900 STS 60 970 29.2000 145.100 TC 65 29.2000 145.100 4 65 7 33
1980208N23153 1980 54 WP MM LEX 1980-08-04 15:00:00 TS 29.4482 145.288 main 793 777 PPPP_____PP___ WP121980 29.4574 145.328 62 0 29.4649 145.113 5 65 970 2 100 50 2 175 100 29.4150 145.535 3 58 972 29.4149 145.078 STS 60 970 29.4574 145.328 TC 62 29.4796 145.345 4 63 7 40
1980208N23153 1980 54 WP MM LEX 1980-08-04 18:00:00 TS 29.6896 145.555 65 970 tokyo main 782 774 OOOO_____OP___ jtwc_wp WP121980 29.7000 145.600 60 0 29.7000 145.400 5 65 970 2 100 50 2 175 100 0 29.7000 145.800 3 58 975 29.6000 145.300 STS 60 970 29.7000 145.600 TC 60 29.7374 145.633 4 62 7 47
1980208N23153 1980 54 WP MM LEX 1980-08-04 21:00:00 TS 29.9177 145.867 main 783 774 PPPP_____PP___ WP121980 29.9575 145.935 60 0 29.9075 145.770 5 65 972 2 100 50 2 175 100 29.9074 146.043 3 58 975 29.7998 145.563 STS 57 972 29.9575 145.935 TC 60 29.9764 145.954 4 61 7 52
1980208N23153 1980 54 WP MM LEX 1980-08-05 00:00:00 TS 30.1333 146.217 65 975 tokyo main 785 782 OOOO_____OO___ jtwc_wp WP121980 30.2000 146.300 60 0 30.1000 146.200 5 65 975 2 100 50 2 175 100 0 30.1000 146.300 3 58 975 30.0000 145.900 STS 55 975 30.2000 146.300 TC 60 30.2000 146.300 2 60 7 56
1980208N23153 1980 54 WP MM LEX 1980-08-05 03:00:00 TS 30.3394 146.581 main 795 787 PPPP_____PP___ WP121980 30.4073 146.643 60 0 30.2926 146.658 5 60 977 2 90 45 2 175 100 30.3349 146.578 3 58 977 30.1924 146.313 STS 55 975 30.4073 146.643 TC 60 30.4021 146.654 2 60 8 57
1980208N23153 1980 54 WP MM LEX 1980-08-05 06:00:00 TS 30.5487 146.971 55 980 tokyo main 807 800 OOOO_____OP___ jtwc_wp WP121980 30.6000 147.000 60 0 30.5000 147.100 4 55 980 2 80 40 2 175 100 0 30.6000 146.900 3 58 980 30.4000 146.800 STS 55 975 30.6000 147.000 TC 60 30.5924 147.029 2 60 8 58
1980208N23153 1980 54 WP MM LEX 1980-08-05 09:00:00 TS 30.7761 147.388 main 813 812 PPPP_____PP___ WP121980 30.7924 147.393 60 0 30.7423 147.465 4 55 980 2 80 40 2 175 100 30.9001 147.300 3 58 980 30.6428 147.365 STS 52 977 30.7924 147.393 TC 60 30.7865 147.414 2 60 9 57
1980208N23153 1980 54 WP MM LEX 1980-08-05 12:00:00 TS 31.0167 147.800 55 980 tokyo main 826 826 OOOO_____OO___ jtwc_wp WP121980 31.0000 147.800 60 0 31.0000 147.800 4 55 980 2 80 40 2 175 100 0 31.2000 147.700 3 58 980 30.9000 147.900 STS 50 980 31.0000 147.800 TC 60 31.0000 147.800 2 60 8 54
1980208N23153 1980 54 WP MM LEX 1980-08-05 15:00:00 TS 31.2619 148.164 main 834 834 PPPP_____PP___ WP121980 31.2349 148.208 60 0 31.2424 148.150 4 55 980 2 80 45 2 175 112 31.4646 147.993 3 58 980 31.1421 148.281 STS 50 980 31.2349 148.208 TC 60 31.2525 148.147 2 60 8 51
1980208N23153 1980 54 WP MM LEX 1980-08-05 18:00:00 TS 31.5210 148.516 55 980 tokyo main 843 843 OOOO_____OP___ jtwc_wp WP121980 31.5000 148.600 60 0 31.5000 148.500 4 55 980 2 80 50 2 175 125 0 31.7000 148.300 3 58 980 31.4000 148.600 STS 50 980 31.5000 148.600 TC 60 31.5260 148.499 2 60 8 49
1980208N23153 1980 54 WP MM LEX 1980-08-05 21:00:00 TS 31.7993 148.879 main 856 856 PPPP_____PP___ WP121980 31.7997 148.943 60 0 31.7998 148.835 4 55 980 2 80 50 2 175 125 31.9001 148.728 3 58 980 31.6849 148.950 STS 50 980 31.7997 148.943 TC 60 31.8116 148.876 2 60 9 49
1980208N23153 1980 54 WP MM LEX 1980-08-06 00:00:00 TS 32.0833 149.267 55 980 tokyo main 871 871 OOOO_____OO___ jtwc_wp WP121980 32.1000 149.300 60 0 32.1000 149.200 4 55 980 2 80 50 2 175 125 0 32.1000 149.200 3 58 980 32.0000 149.300 STS 50 980 32.1000 149.300 TC 60 32.1000 149.300 2 60 9 51
1980208N23153 1980 54 WP MM LEX 1980-08-06 03:00:00 TS 32.3465 149.669 main 893 888 PPPP_____PP___ WP121980 32.3496 149.706 60 0 32.3420 149.598 4 55 980 2 80 50 2 175 125 32.3346 149.628 3 58 980 32.3494 149.606 STS 47 980 32.3496 149.706 TC 60 32.3540 149.773 2 58 9 54
1980208N23153 1980 54 WP MM LEX 1980-08-06 06:00:00 TS 32.6185 150.150 55 980 tokyo main 912 912 OOOO_____OP___ jtwc_wp WP121980 32.6000 150.200 60 0 32.6000 150.100 4 55 980 2 80 50 2 175 125 0 32.6000 150.100 3 58 980 32.7000 150.000 TS 45 980 32.6000 150.200 TC 60 32.6113 150.298 2 57 11 58
1980208N23153 1980 54 WP MM LEX 1980-08-06 09:00:00 TS 32.9167 150.751 main 959 955 PPPP_____PP___ WP121980 32.8925 150.813 57 0 32.9352 150.762 4 55 980 2 80 50 2 175 125 32.8920 150.648 3 58 980 33.0001 150.598 TS 45 980 32.8925 150.813 TC 57 32.8879 150.874 2 56 12 60
1980208N23153 1980 54 WP MM LEX 1980-08-06 12:00:00 TS 33.2333 151.433 55 980 tokyo main 999 999 OOOO_____OO___ jtwc_wp WP121980 33.2000 151.500 55 0 33.3000 151.500 4 55 980 2 80 50 2 175 125 0 33.2000 151.300 3 58 980 33.3000 151.300 TS 45 980 33.2000 151.500 TC 55 33.2000 151.500 2 55 13 62
1980208N23153 1980 54 WP MM LEX 1980-08-06 15:00:00 TS 33.5414 152.155 main 1060 1056 PPPP_____PP___ WP121980 33.4696 152.186 52 0 33.6497 152.208 4 50 982 2 2 177 122 33.4929 152.093 3 53 982 33.6421 151.985 TS 42 982 33.4696 152.186 TC 52 33.5242 152.270 2 53 14 62
1980208N23153 1980 54 WP MM LEX 1980-08-06 18:00:00 TS 33.8813 152.896 45 985 tokyo main 1110 1110 OOOO_____OP___ jtwc_wp WP121980 33.8000 152.900 50 0 34.0000 152.900 3 45 985 0 2 180 120 0 33.8000 152.900 3 48 985 34.0000 152.700 TS 40 985 33.8000 152.900 TC 50 33.8877 153.074 2 52 14 60
1980208N23153 1980 54 WP MM LEX 1980-08-06 21:00:00 TS 34.2579 153.640 main 1163 1163 PPPP_____PP___ WP121980 34.2557 153.709 50 0 34.3197 153.566 3 45 985 0 2 215 185 34.0818 153.575 3 48 985 34.3276 153.466 TS 40 985 34.2557 153.709 TC 50 34.3068 153.816 2 51 14 54
1980208N23153 1980 54 WP MM LEX 1980-08-07 00:00:00 TS 34.7048 154.286 45 985 tokyo main 1202 1194 OOOO_____OO___ jtwc_wp WP121980 34.8000 154.400 50 0 34.7000 154.200 3 45 985 0 9 250 250 0 34.5000 154.200 3 48 985 34.7000 154.200 TS 40 985 34.8000 154.400 TC 50 34.8000 154.400 2 50 14 45
1980208N23153 1980 54 WP MM LEX 1980-08-07 03:00:00 TS 35.2556 154.840 main 1186 1173 PPPP_____PP___ WP121980 35.3894 154.793 45 0 35.2126 154.852 3 45 985 0 9 250 250 35.1904 154.908 3 48 985 35.1696 154.845 TS 40 985 35.3894 154.793 TC 45 35.3762 154.764 2 45 15 37
1980208N23153 1980 54 WP MM LEX 1980-08-07 06:00:00 TS 35.8667 155.347 45 985 tokyo main 1165 1142 OOOO_____OO___ jtwc_wp WP121980 36.0000 155.000 40 0 35.8000 155.400 3 45 985 0 9 250 250 0 36.0000 155.500 3 48 985 35.7000 155.400 TS 40 985 36.0000 155.000 TC 40 36.0000 155.000 5 40 15 34
1980208N23153 1980 54 WP MM LEX 1980-08-07 09:00:00 TS 36.4588 155.847 main 1132 1084 _PPP__________ WP121980 -1 36.3846 155.783 3 45 985 0 9 225 200 36.7794 155.834 3 48 985 36.2125 155.925 TS 40 985 TC 5 14 26
1980208N23153 1980 54 WP MM LEX 1980-08-07 12:00:00 TS 37.1000 156.100 45 985 tokyo main 1084 1029 _OOO__________ -1 37.0000 156.000 3 45 985 0 4 200 150 0 37.5000 156.000 3 48 985 36.8000 156.300 TS 40 985 13 14
1980208N23153 1980 54 WP MM LEX 1980-08-07 15:00:00 TS 37.7398 156.239 main 1029 967 _PPP__________ -1 37.6349 156.103 3 45 985 0 4 200 150 38.0574 156.116 3 48 985 37.5272 156.497 TS 40 985 13 6
1980208N23153 1980 54 WP MM LEX 1980-08-07 18:00:00 TS 38.4000 156.267 45 985 tokyo main 967 901 _OOO__________ -1 38.3000 156.100 3 45 985 0 4 200 150 0 38.6000 156.200 3 48 985 38.3000 156.500 TS 40 985 14 0
1980208N23153 1980 54 WP MM LEX 1980-08-07 21:00:00 TS 39.1026 156.249 main 897 833 _PPP__________ -1 39.0000 156.058 3 45 985 0 4 200 137 39.2926 156.364 3 48 985 39.0151 156.324 TS 40 985 14 358
1980208N23153 1980 54 WP MM LEX 1980-08-08 00:00:00 TS 39.8000 156.200 45 985 tokyo main 833 781 _OOO__________ -1 39.7000 156.000 3 45 985 0 4 200 125 0 40.0000 156.500 3 48 985 39.7000 156.100 TS 40 985 14 358
1980208N23153 1980 54 WP MM LEX 1980-08-08 03:00:00 TS 40.4633 156.176 main 773 730 _PPP__________ -1 40.3800 155.992 3 45 985 0 4 200 162 40.6299 156.516 3 43 990 40.3799 156.019 TS 40 985 13 359
1980208N23153 1980 54 WP MM LEX 1980-08-08 06:00:00 TS 41.0727 156.182 45 985 tokyo main 721 687 _OOO__________ -1 41.0000 156.000 3 45 985 0 9 200 200 0 41.2000 156.500 2 38 995 41.0000 156.000 TS 40 985 11 2
1980208N23153 1980 54 WP MM LEX 1980-08-08 09:00:00 TS 41.5735 156.217 main 679 644 _PPP__________ -1 41.4850 156.000 3 45 987 0 9 200 200 41.6850 156.542 2 38 995 41.5275 155.998 TS 40 985 10 4
1980208N23153 1980 54 WP MM LEX 1980-08-08 12:00:00 TS 42.0889 156.267 45 990 tokyo main 644 600 _OOO__________ -1 42.0000 156.000 3 45 990 0 9 200 200 0 42.2000 156.600 2 38 995 42.0000 156.000 TS 40 985 12 4
1980208N23153 1980 54 WP MM LEX 1980-08-08 15:00:00 TS 42.7913 156.325 main 593 546 _PP___________ -1 42.7125 156.000 3 992 0 9 42.8700 156.650 2 33 995 TS 15 2
1980208N23153 1980 54 WP MM LEX 1980-08-08 18:00:00 MX 43.5500 156.350 994 tokyo main 546 513 _OO___________ -1 43.5000 156.000 6 994 0 0 0 43.6000 156.700 1 29 995 14 1
1980208N23153 1980 54 WP MM LEX 1980-08-08 21:00:00 MX 44.2338 156.375 main 513 480 _PP___________ -1 44.2125 156.000 6 995 0 0 44.2550 156.750 1 29 995 15 1
1980208N23153 1980 54 WP MM LEX 1980-08-09 00:00:00 ET 45.0000 156.400 996 tokyo main 480 461 _OO___________ -1 45.0000 156.000 6 996 0 0 0 45.0000 156.800 9 29 996 17 0
1980208N23153 1980 54 WP MM LEX 1980-08-09 03:00:00 ET 45.9212 156.390 main 461 351 _PP___________ -1 45.8873 155.931 6 998 0 0 45.9550 156.850 9 29 998 20 0
1980208N23153 1980 54 WP MM LEX 1980-08-09 06:00:00 ET 47.0000 156.386 1000 tokyo main 341 215 _OO___________ -1 47.0000 156.000 6 1000 0 0 0 47.0000 156.900 9 29 1000 24 2
1980208N23153 1980 54 WP MM LEX 1980-08-09 09:00:00 ET 48.2867 156.507 main 204 90 _PP___________ -1 48.4225 156.285 6 1001 0 0 48.0149 156.950 9 26 1001 28 8
1980208N23153 1980 54 WP MM LEX 1980-08-09 12:00:00 ET 49.8000 157.000 1002 tokyo main 89 39 _OO___________ -1 50.0000 157.000 6 1002 0 0 0 49.0000 157.000 9 23 1002 34 21
1980208N23153 1980 54 WP MM LEX 1980-08-09 15:00:00 ET 51.4306 158.419 main 40 25 _P____________ -1 51.4306 158.419 6 1002 0 0 9 37 30
1980208N23153 1980 54 WP MM LEX 1980-08-09 18:00:00 ET 53.0000 160.000 1002 tokyo main 12 0 _O____________ -1 53.0000 160.000 6 1002 0 0 0 40 24
1980208N23153 1980 54 WP MM LEX 1980-08-09 21:00:00 ET 55.1478 161.141 main 0 0 _P____________ -1 55.1478 161.141 6 1002 0 0 41 16
1980208N23153 1980 54 WP MM LEX 1980-08-10 00:00:00 ET 57.0000 162.000 1002 tokyo main 0 0 _O____________ -1 57.0000 162.000 6 1002 0 0 0 28 17
1980208N23153 1980 54 WP MM LEX 1980-08-10 03:00:00 ET 57.7984 162.666 main 0 0 _P____________ -1 57.7984 162.666 6 1002 0 0 11 28
1980208N23153 1980 54 WP MM LEX 1980-08-10 06:00:00 ET 58.0000 163.000 1002 tokyo main 12 12 _O____________ -1 58.0000 163.000 6 1002 0 0 0 4 38
1980208N23153 1980 54 WP MM LEX 1980-08-10 09:00:00 ET 58.0747 163.077 main 25 12 _P____________ -1 58.0747 163.077 6 1003 0 0 0 0
1980208N23153 1980 54 WP MM LEX 1980-08-10 12:00:00 ET 58.0000 163.000 1004 tokyo main 12 12 _O____________ -1 58.0000 163.000 6 1004 0 0 0 1 212
1980208N23153 1980 54 WP MM LEX 1980-08-10 15:00:00 ET 58.0000 163.000 main 12 12 _P____________ -1 58.0000 163.000 6 1004 0 0 0 0
1980208N23153 1980 54 WP MM LEX 1980-08-10 18:00:00 ET 58.0000 163.000 1004 tokyo main 12 12 _O____________ -1 58.0000 163.000 6 1004 0 0 0 1 328
1980208N23153 1980 54 WP MM LEX 1980-08-10 21:00:00 ET 58.0747 162.923 main 22 11 _P____________ -1 58.0747 162.923 6 1004 0 0 0 0
1980208N23153 1980 54 WP MM LEX 1980-08-11 00:00:00 ET 58.0000 163.000 1004 tokyo main 12 0 _O____________ -1 58.0000 163.000 6 1004 0 0 0 6 148
1980208N23153 1980 54 WP MM LEX 1980-08-11 03:00:00 ET 57.5760 163.506 main 16 16 _P____________ -1 57.5760 163.506 6 1004 0 0 11 152
1980208N23153 1980 54 WP MM LEX 1980-08-11 06:00:00 ET 57.0000 164.000 1004 tokyo main 65 44 _O____________ -1 57.0000 164.000 6 1004 0 0 0 11 166
1980208N23153 1980 54 WP MM LEX 1980-08-11 09:00:00 ET 56.4994 163.994 main 44 36 _P____________ -1 56.4994 163.994 6 1004 0 0 10 179
1980208N23153 1980 54 WP MM LEX 1980-08-11 12:00:00 ET 56.0000 164.000 1004 tokyo main 43 43 _O____________ -1 56.0000 164.000 6 1004 0 0 0 10 166
1980208N23153 1980 54 WP MM LEX 1980-08-11 15:00:00 ET 55.5004 164.427 main 99 99 _P____________ -1 55.5004 164.427 6 1003 0 0 11 150
1980208N23153 1980 54 WP MM LEX 1980-08-11 18:00:00 ET 55.0000 165.000 1002 tokyo main 165 165 _O____________ -1 55.0000 165.000 6 1002 0 0 0 12 148
1980208N23153 1980 54 WP MM LEX 1980-08-11 21:00:00 ET 54.4998 165.499 main 218 218 _P____________ -1 54.4998 165.499 6 1002 0 0 12 150
1980208N23153 1980 54 WP MM LEX 1980-08-12 00:00:00 ET 54.0000 166.000 1002 tokyo main 263 263 _O____________ -1 54.0000 166.000 6 1002 0 0 0 12 153
1980208N23153 1980 54 WP MM LEX 1980-08-12 03:00:00 ET 53.4235 166.426 main 314 314 _P____________ -1 53.4235 166.426 6 1001 0 0 12 149
1980208N23153 1980 54 WP MM LEX 1980-08-12 06:00:00 ET 53.0000 167.000 1000 tokyo main 370 370 _O____________ -1 53.0000 167.000 6 1000 0 0 0 10 119
1980208N23153 1980 54 WP MM LEX 1980-08-12 09:00:00 ET 52.9257 167.922 main 427 427 _P____________ -1 52.9257 167.922 6 1000 0 0 12 90
1980208N23153 1980 54 WP MM LEX 1980-08-12 12:00:00 ET 53.0000 169.000 1000 tokyo main 487 487 _O____________ -1 53.0000 169.000 6 1000 0 0 0 12 87
1980208N23153 1980 54 WP MM LEX 1980-08-12 15:00:00 ET 52.9992 170.000 main 548 548 _P____________ -1 52.9992 170.000 6 999 0 0 12 90
1980208N23153 1980 54 WP MM LEX 1980-08-12 18:00:00 ET 53.0000 171.000 998 tokyo main 601 601 _O____________ -1 53.0000 171.000 6 998 0 0 0 12 92
1980208N23153 1980 54 WP MM LEX 1980-08-12 21:00:00 ET 52.9595 171.929 main 649 649 _P____________ -1 52.9595 171.929 6 997 0 0 12 90
1980208N23153 1980 54 WP MM LEX 1980-08-13 00:00:00 ET 53.0000 173.000 996 tokyo main 708 708 _O____________ -1 53.0000 173.000 6 996 0 0 0 15 80
1980208N23153 1980 54 WP MM LEX 1980-08-13 03:00:00 ET 53.2132 174.423 main 776 776 _P____________ -1 53.2132 174.423 6 996 0 0 19 74
1980208N23153 1980 54 WP MM LEX 1980-08-13 06:00:00 ET 53.5000 176.000 996 tokyo main 788 786 _O____________ -1 53.5000 176.000 6 996 0 0 0 19 73
1980208N23153 1980 54 WP MM LEX 1980-08-13 09:00:00 ET 53.7647 177.524 main 802 802 _P____________ -1 53.7647 177.524 6 996 0 0 18 74
1980208N23153 1980 54 WP MM LEX 1980-08-13 12:00:00 ET 54.0000 179.000 996 tokyo main 805 _O____________ -1 54.0000 179.000 6 996 0 0 0 18 75

デジタル台風データ・検索

IBTrACS Databaseについて

本データベースは、米国NOAAが公開する1842年以降の世界の熱帯低気圧のベストトラックデータアーカイブInternational Best Track Archive for Climate Stewardship (IBTrACS)を、ウェブで閲覧しやすい形式に変換したものです。

最終更新日:2021-12-08